Time;durP1;ratioP1;P1;durP2;ratioP2;P2;SDS_P1;SDS_P2;PMS_P1;PMS_P2;Temp;Humidity;BMP_temperature;BMP_pressure;BME280_temperature;BME280_humidity;BME280_pressure;Samples;Min_cycle;Max_cycle;Signal;HPM_P1;HPM_P2
2023/09/17 00:01:04;;;;;;;;;;;20.10;88.60;;;;;;4972429;29;19914;-80
2023/09/17 00:03:30;;;;;;;;;;;20.10;88.70;;;;;;4965738;28;19915;-80
2023/09/17 00:05:55;;;;;;;;;;;20.10;88.80;;;;;;4961092;29;19926;-80
2023/09/17 00:08:21;;;;;;;;;;;20.00;88.90;;;;;;4959343;29;19993;-81
2023/09/17 00:10:46;;;;;;;;;;;20.00;89.20;;;;;;4958328;29;19910;-81
2023/09/17 00:13:12;;;;;;;;;;;19.90;89.30;;;;;;4960685;28;22405;-81
2023/09/17 00:15:38;;;;;;;;;;;19.80;89.30;;;;;;4959655;29;20381;-81
2023/09/17 00:18:03;;;;;;;;;;;19.80;89.70;;;;;;4958255;29;19921;-81
2023/09/17 00:20:29;;;;;;;;;;;19.90;89.60;;;;;;4961313;29;19921;-82
2023/09/17 00:22:55;;;;;;;;;;;20.10;88.50;;;;;;4960338;28;19921;-82
2023/09/17 00:25:20;;;;;;;;;;;20.00;88.60;;;;;;4964563;29;19919;-80
2023/09/17 00:27:46;;;;;;;;;;;20.00;89.00;;;;;;4969056;29;19922;-82
2023/09/17 00:30:11;;;;;;;;;;;20.00;88.90;;;;;;4968778;29;20435;-81
2023/09/17 00:32:37;;;;;;;;;;;19.90;89.00;;;;;;4969612;28;19954;-81
2023/09/17 00:35:03;;;;;;;;;;;19.80;89.40;;;;;;4961237;29;20483;-80
2023/09/17 00:37:29;;;;;;;;;;;20.00;88.80;;;;;;4952015;29;19924;-81
2023/09/17 00:39:54;;;;;;;;;;;19.80;89.00;;;;;;4953046;29;19918;-81
2023/09/17 00:42:20;;;;;;;;;;;19.70;89.40;;;;;;4953088;28;19938;-80
2023/09/17 00:44:45;;;;;;;;;;;19.80;88.80;;;;;;4954660;29;19922;-81
2023/09/17 00:47:11;;;;;;;;;;;19.80;89.10;;;;;;4960060;29;19918;-82
2023/09/17 00:49:36;;;;;;;;;;;19.60;89.40;;;;;;4961372;29;19946;-81
2023/09/17 00:52:05;;;;;;;;;;;19.60;89.70;;;;;;4962327;28;19910;-80
2023/09/17 00:54:31;;;;;;;;;;;19.50;89.70;;;;;;4952409;29;19918;-79
2023/09/17 00:56:57;;;;;;;;;;;19.60;89.90;;;;;;4958468;29;19922;-81
2023/09/17 00:59:23;;;;;;;;;;;19.70;89.60;;;;;;4961597;29;19998;-82
2023/09/17 01:01:50;;;;;;;;;;;19.60;89.60;;;;;;4960643;28;20742;-80
2023/09/17 01:04:16;;;;;;;;;;;19.70;89.80;;;;;;4953061;29;19921;-80
2023/09/17 01:06:42;;;;;;;;;;;19.70;89.40;;;;;;4953078;29;20326;-81
2023/09/17 01:09:08;;;;;;;;;;;19.80;89.40;;;;;;4954071;29;19910;-81
2023/09/17 01:11:34;;;;;;;;;;;19.80;89.00;;;;;;4952114;28;19914;-80
2023/09/17 01:14:15;;;;;;;;;;;19.70;89.40;;;;;;4953906;29;19957;-81
2023/09/17 01:16:41;;;;;;;;;;;19.70;89.50;;;;;;4954257;29;19911;-82
2023/09/17 01:19:12;;;;;;;;;;;19.60;89.80;;;;;;4956226;29;19918;-82
2023/09/17 01:21:41;;;;;;;;;;;19.60;89.50;;;;;;4956339;28;19958;-81
2023/09/17 01:24:17;;;;;;;;;;;19.60;89.80;;;;;;4947041;29;19967;-80
2023/09/17 01:26:44;;;;;;;;;;;19.60;89.60;;;;;;4974620;28;19938;-81
2023/09/17 01:29:12;;;;;;;;;;;19.70;89.30;;;;;;4959557;29;19954;-82
2023/09/17 01:31:38;;;;;;;;;;;19.70;89.70;;;;;;4951914;28;19910;-81
2023/09/17 01:34:03;;;;;;;;;;;19.80;89.00;;;;;;4957476;29;19974;-81
2023/09/17 01:36:29;;;;;;;;;;;19.80;89.10;;;;;;4958766;29;19919;-81
2023/09/17 01:38:59;;;;;;;;;;;19.90;88.70;;;;;;4955571;29;19922;-80
2023/09/17 01:41:27;;;;;;;;;;;19.90;88.50;;;;;;4957656;29;19918;-80
2023/09/17 01:43:53;;;;;;;;;;;19.80;88.80;;;;;;4958252;28;19918;-80
2023/09/17 01:46:20;;;;;;;;;;;19.70;89.00;;;;;;4958566;29;20372;-81
2023/09/17 01:48:45;;;;;;;;;;;19.70;89.10;;;;;;4962180;28;19910;-80
2023/09/17 01:51:11;;;;;;;;;;;19.60;89.40;;;;;;4964455;29;19911;-80
2023/09/17 01:53:37;;;;;;;;;;;19.80;89.10;;;;;;4960346;28;19918;-81
2023/09/17 01:56:04;;;;;;;;;;;19.60;89.30;;;;;;4959628;28;19962;-78
2023/09/17 01:58:30;;;;;;;;;;;19.70;89.40;;;;;;4963870;29;19982;-80
2023/09/17 02:00:56;;;;;;;;;;;19.80;88.60;;;;;;4960368;29;19954;-81
2023/09/17 02:03:22;;;;;;;;;;;19.70;88.70;;;;;;4964533;28;19961;-81
2023/09/17 02:05:47;;;;;;;;;;;19.60;89.10;;;;;;4961487;29;19918;-81
2023/09/17 02:08:12;;;;;;;;;;;19.80;88.90;;;;;;4958511;29;19927;-80
2023/09/17 02:10:38;;;;;;;;;;;19.80;88.50;;;;;;4960755;29;19929;-80
2023/09/17 02:13:04;;;;;;;;;;;19.60;88.90;;;;;;4962621;29;19965;-81
2023/09/17 02:15:29;;;;;;;;;;;19.50;89.00;;;;;;4962025;29;20001;-80
2023/09/17 02:17:54;;;;;;;;;;;19.50;88.90;;;;;;4963925;29;19910;-81
2023/09/17 02:20:20;;;;;;;;;;;19.50;88.90;;;;;;4963181;29;20353;-81
2023/09/17 02:22:46;;;;;;;;;;;19.50;88.70;;;;;;4961948;28;19941;-80
2023/09/17 02:25:11;;;;;;;;;;;19.40;88.50;;;;;;4961984;29;20380;-80
2023/09/17 02:27:37;;;;;;;;;;;19.50;87.80;;;;;;4963280;29;20392;-80
2023/09/17 02:30:04;;;;;;;;;;;19.50;87.40;;;;;;4963429;29;19918;-81
2023/09/17 02:32:29;;;;;;;;;;;19.30;88.50;;;;;;4964916;28;19914;-80
2023/09/17 02:34:56;;;;;;;;;;;19.20;88.60;;;;;;4962129;29;19921;-81
2023/09/17 02:37:21;;;;;;;;;;;19.20;88.50;;;;;;4959430;29;19918;-79
2023/09/17 02:39:47;;;;;;;;;;;19.30;88.40;;;;;;4960529;29;19990;-81
2023/09/17 02:42:12;;;;;;;;;;;19.20;88.00;;;;;;4963958;28;19911;-81
2023/09/17 02:44:38;;;;;;;;;;;19.20;87.80;;;;;;4961464;29;20001;-81
2023/09/17 02:47:03;;;;;;;;;;;19.30;87.50;;;;;;4960401;29;19942;-83
2023/09/17 02:49:29;;;;;;;;;;;19.20;87.40;;;;;;4954778;29;19932;-81
2023/09/17 02:51:54;;;;;;;;;;;19.10;87.30;;;;;;4960817;29;19915;-79
2023/09/17 02:54:20;;;;;;;;;;;19.00;88.00;;;;;;4961043;29;19914;-80
2023/09/17 02:56:45;;;;;;;;;;;18.90;88.50;;;;;;4964784;29;19910;-81
2023/09/17 02:59:11;;;;;;;;;;;18.90;88.80;;;;;;4967059;29;20376;-82
2023/09/17 03:01:37;;;;;;;;;;;19.00;88.60;;;;;;4962160;28;20280;-81
2023/09/17 03:04:02;;;;;;;;;;;18.90;88.30;;;;;;4964336;29;19915;-81
2023/09/17 03:06:30;;;;;;;;;;;19.00;88.20;;;;;;4961838;29;20300;-82
2023/09/17 03:08:56;;;;;;;;;;;19.00;87.30;;;;;;4961692;29;20014;-81
2023/09/17 03:11:23;;;;;;;;;;;19.00;87.40;;;;;;4961651;29;19949;-82
2023/09/17 03:13:49;;;;;;;;;;;19.00;87.50;;;;;;4964294;28;20010;-82
2023/09/17 03:16:15;;;;;;;;;;;18.80;88.00;;;;;;4962227;29;20328;-81
2023/09/17 03:18:42;;;;;;;;;;;18.80;87.90;;;;;;4955987;29;19970;-82
2023/09/17 03:21:08;;;;;;;;;;;18.80;88.10;;;;;;4963907;29;20589;-81
2023/09/17 03:23:33;;;;;;;;;;;18.80;88.50;;;;;;4963212;28;19915;-81
2023/09/17 03:26:00;;;;;;;;;;;18.80;88.20;;;;;;4963849;29;19921;-81
2023/09/17 03:28:26;;;;;;;;;;;18.80;88.60;;;;;;4964124;29;20006;-81
2023/09/17 03:30:52;;;;;;;;;;;18.80;88.60;;;;;;4963590;28;19914;-84
2023/09/17 03:33:18;;;;;;;;;;;18.80;88.50;;;;;;4961964;29;19914;-81
2023/09/17 03:35:43;;;;;;;;;;;18.80;88.00;;;;;;4971664;29;19915;-80
2023/09/17 03:38:08;;;;;;;;;;;18.70;88.20;;;;;;4970941;29;19918;-80
2023/09/17 03:40:34;;;;;;;;;;;18.80;88.10;;;;;;4970905;29;19972;-81
2023/09/17 03:42:59;;;;;;;;;;;18.70;88.40;;;;;;4966129;28;19911;-81
2023/09/17 03:45:25;;;;;;;;;;;18.80;88.40;;;;;;4962817;29;19924;-80
2023/09/17 03:47:51;;;;;;;;;;;18.90;87.40;;;;;;4964265;29;19977;-81
2023/09/17 03:50:16;;;;;;;;;;;18.80;87.70;;;;;;4966129;29;19927;-82
2023/09/17 03:52:45;;;;;;;;;;;18.70;87.70;;;;;;4967123;29;19917;-81
2023/09/17 03:55:11;;;;;;;;;;;18.90;87.40;;;;;;4965523;29;19965;-81
2023/09/17 03:57:37;;;;;;;;;;;18.80;87.70;;;;;;4973140;28;19911;-81
2023/09/17 04:00:06;;;;;;;;;;;18.80;87.80;;;;;;4957311;29;19918;-80
2023/09/17 04:02:35;;;;;;;;;;;18.70;88.30;;;;;;4948087;28;20269;-80
2023/09/17 04:05:01;;;;;;;;;;;18.70;88.50;;;;;;4954685;29;19974;-80
2023/09/17 04:07:27;;;;;;;;;;;18.70;88.40;;;;;;4954197;29;20376;-80
2023/09/17 04:09:53;;;;;;;;;;;18.70;88.50;;;;;;4955637;29;20416;-80
2023/09/17 04:12:18;;;;;;;;;;;18.80;88.00;;;;;;4953442;28;20021;-80
2023/09/17 04:14:44;;;;;;;;;;;18.70;87.80;;;;;;4955295;29;19921;-80
2023/09/17 04:17:10;;;;;;;;;;;18.60;88.00;;;;;;4953258;29;19993;-81
2023/09/17 04:19:35;;;;;;;;;;;18.60;88.20;;;;;;4960489;29;20344;-80
2023/09/17 04:22:02;;;;;;;;;;;18.60;88.20;;;;;;4960221;29;19922;-81
2023/09/17 04:24:28;;;;;;;;;;;18.50;88.20;;;;;;4962124;29;19914;-81
2023/09/17 04:26:54;;;;;;;;;;;18.50;88.30;;;;;;4957905;29;19919;-81
2023/09/17 04:29:20;;;;;;;;;;;18.60;88.20;;;;;;4959779;29;19928;-81
2023/09/17 04:31:46;;;;;;;;;;;18.60;87.80;;;;;;4962460;28;19917;-80
2023/09/17 04:34:12;;;;;;;;;;;18.60;87.60;;;;;;4964502;29;20368;-81
2023/09/17 04:36:38;;;;;;;;;;;18.60;87.80;;;;;;4966009;29;19929;-81
2023/09/17 04:39:03;;;;;;;;;;;18.50;88.20;;;;;;4964954;29;19915;-79
2023/09/17 04:41:29;;;;;;;;;;;18.60;87.60;;;;;;4963875;29;19919;-81
2023/09/17 04:43:54;;;;;;;;;;;18.50;87.80;;;;;;4967540;28;19911;-81
2023/09/17 04:46:21;;;;;;;;;;;18.50;88.00;;;;;;4961771;29;19925;-81
2023/09/17 04:48:46;;;;;;;;;;;18.40;87.80;;;;;;4968140;29;19974;-82
2023/09/17 04:51:16;;;;;;;;;;;18.40;88.20;;;;;;4967167;29;19911;-80
2023/09/17 04:53:42;;;;;;;;;;;18.40;88.30;;;;;;4963775;28;19962;-82
2023/09/17 04:56:07;;;;;;;;;;;18.50;88.40;;;;;;4965508;29;19944;-81
2023/09/17 04:58:33;;;;;;;;;;;18.50;88.30;;;;;;4966398;29;19915;-82
2023/09/17 05:00:58;;;;;;;;;;;18.40;88.30;;;;;;4965116;29;19993;-80
2023/09/17 05:03:24;;;;;;;;;;;18.40;88.60;;;;;;4960185;29;21778;-81
2023/09/17 05:05:49;;;;;;;;;;;18.40;88.90;;;;;;4962664;29;19926;-81
2023/09/17 05:08:16;;;;;;;;;;;18.40;88.60;;;;;;4963096;29;19962;-79
2023/09/17 05:10:42;;;;;;;;;;;18.40;88.40;;;;;;4963447;29;19921;-80
2023/09/17 05:13:08;;;;;;;;;;;18.40;88.70;;;;;;4965860;28;20071;-80
2023/09/17 05:15:34;;;;;;;;;;;18.50;88.50;;;;;;4958623;29;19915;-82
2023/09/17 05:18:05;;;;;;;;;;;18.50;88.40;;;;;;4957867;29;20381;-81
2023/09/17 05:20:30;;;;;;;;;;;18.50;87.80;;;;;;4957461;29;19965;-79
2023/09/17 05:22:56;;;;;;;;;;;18.50;88.30;;;;;;4963842;28;19914;-81
2023/09/17 05:25:21;;;;;;;;;;;18.40;88.20;;;;;;4961756;29;19925;-80
2023/09/17 05:27:46;;;;;;;;;;;18.40;88.50;;;;;;4966632;29;19917;-80
2023/09/17 05:30:13;;;;;;;;;;;18.50;88.70;;;;;;4964057;29;19918;-82
2023/09/17 05:32:39;;;;;;;;;;;18.40;88.40;;;;;;4964641;28;20446;-81
2023/09/17 05:35:05;;;;;;;;;;;18.40;88.50;;;;;;4963524;29;19915;-81
2023/09/17 05:37:31;;;;;;;;;;;18.40;88.70;;;;;;4962183;29;19926;-81
2023/09/17 05:39:56;;;;;;;;;;;18.40;88.60;;;;;;4962106;29;19914;-81
2023/09/17 05:42:22;;;;;;;;;;;18.40;88.90;;;;;;4964585;28;19915;-81
2023/09/17 05:44:47;;;;;;;;;;;18.40;88.90;;;;;;4967774;29;19918;-81
2023/09/17 05:47:13;;;;;;;;;;;18.40;89.00;;;;;;4961174;28;19919;-81
2023/09/17 05:49:38;;;;;;;;;;;18.40;88.80;;;;;;4963412;29;19915;-81
2023/09/17 05:52:04;;;;;;;;;;;18.40;89.10;;;;;;4960916;28;19910;-80
2023/09/17 05:54:30;;;;;;;;;;;18.50;89.10;;;;;;4960614;29;19914;-81
2023/09/17 05:56:55;;;;;;;;;;;18.60;89.30;;;;;;4961775;29;19974;-81
2023/09/17 05:59:21;;;;;;;;;;;18.60;89.10;;;;;;4961701;29;19911;-80
2023/09/17 06:01:47;;;;;;;;;;;18.60;89.40;;;;;;4955570;28;19918;-81
2023/09/17 06:04:12;;;;;;;;;;;18.60;89.80;;;;;;4955173;29;19921;-81
2023/09/17 06:06:37;;;;;;;;;;;18.80;89.00;;;;;;4957899;29;20399;-80
2023/09/17 06:09:03;;;;;;;;;;;18.70;89.10;;;;;;4959982;29;19915;-80
2023/09/17 06:11:30;;;;;;;;;;;18.60;89.50;;;;;;4957457;29;19914;-82
2023/09/17 06:13:55;;;;;;;;;;;18.70;89.60;;;;;;4957999;28;20442;-80
2023/09/17 06:16:21;;;;;;;;;;;18.70;89.50;;;;;;4960111;29;19918;-81
2023/09/17 06:18:46;;;;;;;;;;;18.70;89.70;;;;;;4960356;29;20391;-81
2023/09/17 06:21:12;;;;;;;;;;;18.70;89.70;;;;;;4960236;29;19970;-81
2023/09/17 06:23:38;;;;;;;;;;;18.80;89.90;;;;;;4958311;28;19915;-81
2023/09/17 06:26:07;;;;;;;;;;;18.80;89.60;;;;;;4960310;29;20009;-81
2023/09/17 06:28:32;;;;;;;;;;;18.80;89.60;;;;;;4954230;29;19918;-81
2023/09/17 06:30:58;;;;;;;;;;;19.00;89.70;;;;;;4959038;29;19917;-81
2023/09/17 06:33:23;;;;;;;;;;;19.00;89.80;;;;;;4955674;28;19922;-80
2023/09/17 06:35:49;;;;;;;;;;;19.00;89.80;;;;;;4958821;28;19918;-82
2023/09/17 06:38:15;;;;;;;;;;;19.10;89.40;;;;;;4962745;29;20348;-80
2023/09/17 06:40:40;;;;;;;;;;;19.00;89.10;;;;;;4964861;29;19969;-81
2023/09/17 06:43:06;;;;;;;;;;;19.10;89.20;;;;;;4962569;28;19911;-80
2023/09/17 06:45:31;;;;;;;;;;;19.10;89.30;;;;;;4956085;29;19923;-81
2023/09/17 06:47:57;;;;;;;;;;;19.10;89.10;;;;;;4961401;29;19945;-81
2023/09/17 06:50:22;;;;;;;;;;;19.10;89.20;;;;;;4959820;29;21296;-80
2023/09/17 06:52:47;;;;;;;;;;;19.20;89.20;;;;;;4961453;28;19919;-81
2023/09/17 06:55:13;;;;;;;;;;;19.30;89.10;;;;;;4961144;29;19910;-81
2023/09/17 06:57:38;;;;;;;;;;;19.30;89.00;;;;;;4958359;29;19918;-80
2023/09/17 07:00:05;;;;;;;;;;;19.30;88.80;;;;;;4953562;29;19993;-79
2023/09/17 07:02:31;;;;;;;;;;;19.40;88.70;;;;;;4957734;28;19945;-80
2023/09/17 07:05:00;;;;;;;;;;;19.40;88.60;;;;;;4956322;29;19966;-80
2023/09/17 07:07:26;;;;;;;;;;;19.40;88.60;;;;;;4951263;29;19927;-80
2023/09/17 07:09:52;;;;;;;;;;;19.50;88.60;;;;;;4952209;29;19923;-80
2023/09/17 07:12:17;;;;;;;;;;;19.50;88.60;;;;;;4953557;28;19957;-81
2023/09/17 07:14:43;;;;;;;;;;;19.60;88.60;;;;;;4959459;29;20001;-80
2023/09/17 07:17:08;;;;;;;;;;;19.60;88.40;;;;;;4944628;29;20420;-80
2023/09/17 07:19:34;;;;;;;;;;;19.60;88.20;;;;;;4960423;29;19915;-82
2023/09/17 07:22:00;;;;;;;;;;;19.60;88.30;;;;;;4959030;29;19918;-80
2023/09/17 07:24:25;;;;;;;;;;;19.70;88.70;;;;;;4962305;29;19921;-81
2023/09/17 07:26:50;;;;;;;;;;;19.80;88.60;;;;;;4962343;29;20411;-80
2023/09/17 07:29:16;;;;;;;;;;;19.80;88.60;;;;;;4963320;29;19918;-81
2023/09/17 07:31:41;;;;;;;;;;;19.90;88.60;;;;;;4955972;28;19914;-81
2023/09/17 07:34:07;;;;;;;;;;;20.00;88.60;;;;;;4961638;29;20377;-81
2023/09/17 07:36:32;;;;;;;;;;;20.10;88.30;;;;;;4959101;29;19914;-81
2023/09/17 07:38:58;;;;;;;;;;;20.10;88.30;;;;;;4962323;29;20158;-80
2023/09/17 07:41:23;;;;;;;;;;;20.10;88.60;;;;;;4961616;29;19914;-81
2023/09/17 07:43:49;;;;;;;;;;;20.20;88.70;;;;;;4958675;29;22280;-80
2023/09/17 07:46:14;;;;;;;;;;;20.30;88.40;;;;;;4960504;28;19925;-81
2023/09/17 07:48:40;;;;;;;;;;;20.20;88.50;;;;;;4962876;29;19922;-80
2023/09/17 07:51:05;;;;;;;;;;;20.20;88.70;;;;;;4957168;29;20392;-80
2023/09/17 07:53:32;;;;;;;;;;;20.20;88.90;;;;;;4961838;28;19933;-79
2023/09/17 07:55:58;;;;;;;;;;;20.20;88.90;;;;;;4959771;29;19910;-81
2023/09/17 07:58:23;;;;;;;;;;;20.20;88.90;;;;;;4961005;29;19925;-79
2023/09/17 08:00:49;;;;;;;;;;;20.30;89.10;;;;;;4953822;29;19918;-79
2023/09/17 08:03:17;;;;;;;;;;;20.30;89.00;;;;;;4962088;28;19919;-81
2023/09/17 08:05:43;;;;;;;;;;;20.40;88.80;;;;;;4954768;29;19930;-79
2023/09/17 08:08:09;;;;;;;;;;;20.40;88.80;;;;;;4957282;29;19918;-81
2023/09/17 08:10:36;;;;;;;;;;;20.50;88.70;;;;;;4960987;29;19914;-80
2023/09/17 08:13:01;;;;;;;;;;;20.50;88.70;;;;;;4956958;29;20396;-83
2023/09/17 08:15:29;;;;;;;;;;;20.50;88.80;;;;;;4957368;29;19922;-80
2023/09/17 08:17:55;;;;;;;;;;;20.50;88.90;;;;;;4952728;29;19937;-83
2023/09/17 08:20:20;;;;;;;;;;;20.60;88.90;;;;;;4950013;29;19914;-82
2023/09/17 08:22:46;;;;;;;;;;;20.70;88.90;;;;;;4953438;29;19918;-84
2023/09/17 08:25:11;;;;;;;;;;;20.80;88.90;;;;;;4948803;29;20372;-82
2023/09/17 08:27:37;;;;;;;;;;;20.80;88.90;;;;;;4948692;29;20171;-85
2023/09/17 08:30:06;;;;;;;;;;;21.00;88.70;;;;;;4945949;29;19922;-84
2023/09/17 08:32:33;;;;;;;;;;;21.10;87.40;;;;;;4947560;28;20388;-83
2023/09/17 08:34:58;;;;;;;;;;;21.10;87.00;;;;;;4946152;29;19915;-86
2023/09/17 08:37:24;;;;;;;;;;;21.20;86.70;;;;;;4942694;29;20296;-82
2023/09/17 08:39:50;;;;;;;;;;;21.10;87.10;;;;;;4949132;29;19981;-82
2023/09/17 08:42:16;;;;;;;;;;;21.30;86.60;;;;;;4947570;29;19925;-81
2023/09/17 08:44:42;;;;;;;;;;;21.40;86.60;;;;;;4950132;29;19950;-80
2023/09/17 08:47:08;;;;;;;;;;;21.40;86.70;;;;;;4952566;29;19918;-79
2023/09/17 08:49:39;;;;;;;;;;;21.50;85.80;;;;;;4961081;29;19925;-89
2023/09/17 08:52:06;;;;;;;;;;;21.60;85.00;;;;;;4945570;29;19918;-81
2023/09/17 08:54:37;;;;;;;;;;;21.60;85.10;;;;;;4952438;28;20379;-80
2023/09/17 08:57:03;;;;;;;;;;;21.60;84.40;;;;;;4960007;28;19934;-80
2023/09/17 08:59:29;;;;;;;;;;;21.60;84.20;;;;;;4959560;28;19922;-84
2023/09/17 09:01:56;;;;;;;;;;;21.80;83.50;;;;;;4958622;29;19914;-81
2023/09/17 09:04:22;;;;;;;;;;;22.00;81.80;;;;;;4957904;29;20363;-81
2023/09/17 09:06:48;;;;;;;;;;;22.10;81.40;;;;;;4959293;29;19981;-83
2023/09/17 09:09:14;;;;;;;;;;;22.10;81.60;;;;;;4962631;29;19938;-80
2023/09/17 09:11:40;;;;;;;;;;;22.20;79.80;;;;;;4961787;28;19911;-83
2023/09/17 09:14:06;;;;;;;;;;;22.30;79.30;;;;;;4959077;29;20062;-80
2023/09/17 09:16:33;;;;;;;;;;;22.40;79.30;;;;;;4950305;29;19930;-80
2023/09/17 09:18:59;;;;;;;;;;;22.50;78.70;;;;;;4951007;29;20009;-81
2023/09/17 09:21:24;;;;;;;;;;;22.50;78.40;;;;;;4951878;29;19955;-81
2023/09/17 09:23:50;;;;;;;;;;;22.50;79.20;;;;;;4956466;29;19999;-80
2023/09/17 09:26:15;;;;;;;;;;;22.50;78.60;;;;;;4958030;29;20260;-83
2023/09/17 09:28:41;;;;;;;;;;;22.50;78.50;;;;;;4951387;29;19922;-84
2023/09/17 09:31:06;;;;;;;;;;;22.60;78.80;;;;;;4941733;28;19922;-85
2023/09/17 09:33:33;;;;;;;;;;;22.60;79.50;;;;;;4950552;29;19953;-84
2023/09/17 09:36:00;;;;;;;;;;;22.60;78.00;;;;;;4944707;29;19946;-82
2023/09/17 09:38:26;;;;;;;;;;;22.60;78.80;;;;;;4951298;29;20066;-84
2023/09/17 09:40:52;;;;;;;;;;;22.60;79.00;;;;;;4955158;29;19914;-84
2023/09/17 09:43:29;;;;;;;;;;;22.60;78.40;;;;;;4942119;28;19918;-81
2023/09/17 09:45:54;;;;;;;;;;;22.70;77.70;;;;;;4953877;29;19919;-82
2023/09/17 09:48:20;;;;;;;;;;;22.80;76.70;;;;;;4957031;29;19938;-82
2023/09/17 09:50:47;;;;;;;;;;;22.80;76.70;;;;;;4949376;29;19918;-82
2023/09/17 09:53:14;;;;;;;;;;;22.80;76.80;;;;;;4949492;28;20333;-81
2023/09/17 09:55:40;;;;;;;;;;;22.90;77.00;;;;;;4953581;28;19914;-80
2023/09/17 09:58:05;;;;;;;;;;;23.00;75.30;;;;;;4951828;29;20009;-80
2023/09/17 10:00:32;;;;;;;;;;;23.30;74.10;;;;;;4942719;29;19922;-81
2023/09/17 10:02:57;;;;;;;;;;;23.50;72.50;;;;;;4941791;28;19921;-81
2023/09/17 10:05:32;;;;;;;;;;;23.60;72.40;;;;;;4951324;29;19919;-82
2023/09/17 10:07:58;;;;;;;;;;;23.80;71.50;;;;;;4954910;29;19914;-82
2023/09/17 10:10:23;;;;;;;;;;;23.80;73.10;;;;;;4954678;28;19977;-81
2023/09/17 10:12:52;;;;;;;;;;;23.70;74.90;;;;;;4955224;29;19918;-82
2023/09/17 10:15:17;;;;;;;;;;;23.70;73.60;;;;;;4954812;29;19914;-82
2023/09/17 10:17:43;;;;;;;;;;;23.90;72.60;;;;;;4948963;28;20404;-81
2023/09/17 10:20:09;;;;;;;;;;;24.00;73.10;;;;;;4948424;29;20300;-82
2023/09/17 10:22:35;;;;;;;;;;;24.00;71.80;;;;;;4952745;28;19915;-82
2023/09/17 10:25:04;;;;;;;;;;;24.00;70.10;;;;;;4955778;29;19914;-82
2023/09/17 10:27:30;;;;;;;;;;;23.90;70.40;;;;;;4960443;28;19922;-82
2023/09/17 10:29:56;;;;;;;;;;;23.80;71.40;;;;;;4969909;29;19919;-81
2023/09/17 10:32:22;;;;;;;;;;;23.80;70.50;;;;;;4965118;28;19925;-83
2023/09/17 10:34:48;;;;;;;;;;;23.90;70.80;;;;;;4969462;28;20944;-82
2023/09/17 10:37:14;;;;;;;;;;;24.00;70.90;;;;;;4975655;28;20014;-81
2023/09/17 10:39:40;;;;;;;;;;;24.00;69.90;;;;;;4976495;28;19953;-79
2023/09/17 10:42:08;;;;;;;;;;;23.90;70.20;;;;;;4970931;28;19938;-80
2023/09/17 10:44:36;;;;;;;;;;;23.90;70.70;;;;;;4972651;28;19902;-84
2023/09/17 10:47:03;;;;;;;;;;;24.00;69.70;;;;;;4962070;29;19918;-80
2023/09/17 10:49:31;;;;;;;;;;;24.10;69.70;;;;;;4950947;29;19937;-82
2023/09/17 10:51:57;;;;;;;;;;;24.00;69.70;;;;;;4959502;28;19925;-85
2023/09/17 10:54:22;;;;;;;;;;;24.10;70.50;;;;;;4944898;28;19979;-85
2023/09/17 10:56:48;;;;;;;;;;;24.10;71.50;;;;;;4953191;28;19973;-84
2023/09/17 10:59:15;;;;;;;;;;;24.00;71.10;;;;;;4959100;29;19915;-84
2023/09/17 11:01:41;;;;;;;;;;;24.00;71.30;;;;;;4961358;28;19930;-85
2023/09/17 11:04:15;;;;;;;;;;;24.00;71.60;;;;;;4960865;28;19914;-84
2023/09/17 11:06:42;;;;;;;;;;;24.00;71.80;;;;;;4955481;28;19927;-83
2023/09/17 11:09:07;;;;;;;;;;;24.20;69.10;;;;;;4958027;29;19973;-83
2023/09/17 11:11:34;;;;;;;;;;;24.20;69.40;;;;;;4950736;28;20380;-84
2023/09/17 11:14:01;;;;;;;;;;;24.40;69.00;;;;;;4940844;28;19919;-87
2023/09/17 11:16:29;;;;;;;;;;;24.60;68.90;;;;;;4951402;29;19937;-85
2023/09/17 11:19:10;;;;;;;;;;;24.80;67.70;;;;;;4943850;28;20017;-84
2023/09/17 11:21:55;;;;;;;;;;;24.80;66.70;;;;;;4949625;29;19939;-83
2023/09/17 11:24:21;;;;;;;;;;;24.80;66.60;;;;;;4942524;28;19938;-84
2023/09/17 11:26:47;;;;;;;;;;;24.70;67.70;;;;;;4941438;28;19941;-86
2023/09/17 11:29:14;;;;;;;;;;;24.60;67.70;;;;;;4948492;29;19926;-86
2023/09/17 11:31:51;;;;;;;;;;;24.60;67.10;;;;;;4948674;29;20009;-86
2023/09/17 11:34:17;;;;;;;;;;;24.80;66.90;;;;;;4947378;28;19946;-85
2023/09/17 11:36:44;;;;;;;;;;;25.00;66.50;;;;;;4941862;28;19918;-85
2023/09/17 11:39:15;;;;;;;;;;;25.00;65.80;;;;;;4944113;28;19918;-86
2023/09/17 11:41:46;;;;;;;;;;;25.00;66.50;;;;;;4952043;28;20296;-85
2023/09/17 11:44:18;;;;;;;;;;;25.10;66.30;;;;;;4948557;28;19915;-85
2023/09/17 11:47:10;;;;;;;;;;;25.20;67.00;;;;;;4950721;28;19923;-88
2023/09/17 11:49:36;;;;;;;;;;;25.30;65.90;;;;;;4941204;29;19942;-86
2023/09/17 11:52:10;;;;;;;;;;;25.30;66.90;;;;;;4951035;28;20391;-87
2023/09/17 11:54:48;;;;;;;;;;;25.50;66.30;;;;;;4962851;28;19922;-86
2023/09/17 11:57:26;;;;;;;;;;;25.60;65.60;;;;;;4943283;29;20335;-89
2023/09/17 11:59:58;;;;;;;;;;;25.80;64.60;;;;;;4948071;28;20066;-88
2023/09/17 12:02:34;;;;;;;;;;;25.90;63.80;;;;;;4951224;28;19923;-87
2023/09/17 12:05:34;;;;;;;;;;;26.00;64.10;;;;;;4952259;28;20431;-88
2023/09/17 12:08:01;;;;;;;;;;;26.10;62.70;;;;;;4943668;28;19923;-87
2023/09/17 12:10:28;;;;;;;;;;;26.00;62.70;;;;;;4953038;28;20038;-88
2023/09/17 12:12:54;;;;;;;;;;;26.00;62.70;;;;;;4949744;28;19953;-87
2023/09/17 12:15:20;;;;;;;;;;;25.90;63.40;;;;;;4941453;28;20384;-85
2023/09/17 12:17:45;;;;;;;;;;;25.80;63.10;;;;;;4947688;29;19918;-86
2023/09/17 12:20:22;;;;;;;;;;;25.80;63.80;;;;;;4952626;28;19922;-84
2023/09/17 12:22:56;;;;;;;;;;;25.70;62.90;;;;;;4953976;28;20374;-86
2023/09/17 12:25:22;;;;;;;;;;;25.90;62.40;;;;;;4947539;29;19961;-86
2023/09/17 12:27:47;;;;;;;;;;;25.80;63.20;;;;;;4950362;28;19985;-88
2023/09/17 12:30:14;;;;;;;;;;;25.70;63.60;;;;;;4945556;29;19914;-90
2023/09/17 12:51:34;;;;;;;;;;;26.00;62.10;;;;;;4968697;28;19974;-84
2023/09/17 12:54:05;;;;;;;;;;;25.90;61.60;;;;;;4974725;28;19918;-84
2023/09/17 12:56:34;;;;;;;;;;;26.00;61.40;;;;;;4972508;28;19932;-84
2023/09/17 12:59:03;;;;;;;;;;;26.00;60.80;;;;;;4961054;28;20004;-85
2023/09/17 13:07:39;;;;;;;;;;;26.00;62.70;;;;;;4955351;29;19922;-83
2023/09/17 13:10:22;;;;;;;;;;;25.90;62.50;;;;;;4951346;29;19919;-83
2023/09/17 13:12:51;;;;;;;;;;;25.70;63.60;;;;;;4956980;29;20417;-84
2023/09/17 13:15:36;;;;;;;;;;;25.60;64.80;;;;;;4956331;29;19925;-85
2023/09/17 13:18:02;;;;;;;;;;;25.50;64.00;;;;;;4960706;28;19914;-84
2023/09/17 13:24:18;;;;;;;;;;;25.80;62.40;;;;;;4917314;29;19954;-85
2023/09/17 13:26:43;;;;;;;;;;;25.60;63.30;;;;;;4910653;29;19919;-86
2023/09/17 13:29:31;;;;;;;;;;;25.70;62.60;;;;;;4920509;29;19915;-83
2023/09/17 13:43:32;;;;;;;;;;;25.40;63.60;;;;;;4742981;23;19927;-88
2023/09/17 13:46:06;;;;;;;;;;;25.50;63.80;;;;;;4963015;28;19929;-88
2023/09/17 13:48:31;;;;;;;;;;;25.40;64.60;;;;;;4971210;29;20005;-87
2023/09/17 13:50:57;;;;;;;;;;;25.40;64.80;;;;;;4970259;29;19922;-87
2023/09/17 13:53:30;;;;;;;;;;;25.40;64.10;;;;;;4966398;28;19910;-87
2023/09/17 13:55:56;;;;;;;;;;;25.40;64.70;;;;;;4960324;29;19915;-87
2023/09/17 13:58:21;;;;;;;;;;;25.40;64.50;;;;;;4962947;29;19946;-88
2023/09/17 14:00:50;;;;;;;;;;;25.50;64.30;;;;;;4961577;29;19929;-87
2023/09/17 14:03:19;;;;;;;;;;;25.60;62.90;;;;;;4962770;29;19915;-88
2023/09/17 14:05:50;;;;;;;;;;;25.60;64.60;;;;;;4963584;28;19918;-88
2023/09/17 14:08:15;;;;;;;;;;;25.60;64.60;;;;;;4964371;29;19916;-88
2023/09/17 14:11:09;;;;;;;;;;;25.60;65.40;;;;;;4963268;29;19924;-88
2023/09/17 14:13:41;;;;;;;;;;;25.50;63.80;;;;;;4963598;29;19949;-90
2023/09/17 14:16:24;;;;;;;;;;;25.50;65.20;;;;;;4975634;29;19919;-88
2023/09/17 14:18:49;;;;;;;;;;;25.50;66.50;;;;;;4985296;28;19985;-88
2023/09/17 14:21:15;;;;;;;;;;;25.30;66.60;;;;;;4977994;29;19981;-87
2023/09/17 14:23:41;;;;;;;;;;;25.30;66.00;;;;;;4969367;28;19982;-88
2023/09/17 14:26:07;;;;;;;;;;;25.20;65.60;;;;;;4948786;29;19965;-88
2023/09/17 14:28:32;;;;;;;;;;;25.30;63.50;;;;;;4958036;28;19918;-87
2023/09/17 14:30:58;;;;;;;;;;;25.50;63.00;;;;;;4951325;29;19914;-89
2023/09/17 14:33:24;;;;;;;;;;;25.50;64.10;;;;;;4958734;28;20009;-87
2023/09/17 14:35:52;;;;;;;;;;;25.50;63.70;;;;;;4955327;29;19933;-87
2023/09/17 14:38:17;;;;;;;;;;;25.50;64.00;;;;;;4940525;28;19970;-88
2023/09/17 14:40:43;;;;;;;;;;;25.80;63.10;;;;;;4953844;29;20575;-87
2023/09/17 14:43:12;;;;;;;;;;;25.70;63.60;;;;;;4951348;29;19925;-87
2023/09/17 14:45:40;;;;;;;;;;;25.60;64.80;;;;;;4956350;28;20273;-88
2023/09/17 14:48:08;;;;;;;;;;;25.70;66.90;;;;;;4949284;29;20432;-87
2023/09/17 14:50:33;;;;;;;;;;;25.50;65.60;;;;;;4955014;29;19915;-88
2023/09/17 14:53:01;;;;;;;;;;;25.50;66.20;;;;;;4955838;28;19917;-87
2023/09/17 14:55:40;;;;;;;;;;;25.50;66.30;;;;;;4951155;29;20026;-87